| time (UTC) | temp F | wind direction | speed MPH | gust MPH | rain 1hr in | rain 24hr in | rain mn in | humidity % | barometer mb |
| 20260831194211 | 69 | 270 | 3.0 | 7.0 | 0.00 | 0.06 | 0.06 | 65 | 1020.0 |
| 20260831193211 | 69 | 270 | 5.0 | 9.0 | 0.00 | 0.06 | 0.06 | 64 | 1019.9 |
| 20260831192211 | 70 | 274 | 4.0 | 10.0 | 0.00 | 0.06 | 0.06 | 63 | 1019.8 |
| 20260831191211 | 70 | 267 | 5.0 | 8.0 | 0.00 | 0.06 | 0.06 | 62 | 1019.6 |
| 20260831190211 | 71 | 223 | 3.0 | 6.0 | 0.00 | 0.06 | 0.06 | 61 | 1019.6 |
| 20260831185211 | 71 | 218 | 4.0 | 10.0 | 0.00 | 0.06 | 0.06 | 60 | 1019.4 |
| 20260831184211 | 72 | 232 | 6.0 | 12.0 | 0.00 | 0.06 | 0.06 | 59 | 1019.3 |
| 20260831183212 | 72 | 257 | 9.0 | 17.0 | 0.00 | 0.06 | 0.06 | 57 | 1019.3 |
| 20260831182211 | 73 | 257 | 5.0 | 10.0 | 0.00 | 0.06 | 0.06 | 57 | 1019.1 |
| 20260831181211 | 73 | 218 | 2.0 | 4.0 | 0.00 | 0.06 | 0.06 | 56 | 1018.8 |
| 20260831180211 | 73 | 228 | 3.0 | 7.0 | 0.00 | 0.06 | 0.06 | 56 | 1018.7 |
| 20260831175211 | 73 | 269 | 5.0 | 11.0 | 0.00 | 0.06 | 0.06 | 56 | 1018.6 |
| 20260831174211 | 74 | 245 | 3.0 | 9.0 | 0.00 | 0.06 | 0.06 | 55 | 1018.5 |
| 20260831173211 | 74 | 278 | 4.0 | 10.0 | 0.00 | 0.06 | 0.06 | 54 | 1018.5 |
| 20260831172211 | 74 | 236 | 6.0 | 16.0 | 0.00 | 0.06 | 0.06 | 54 | 1018.4 |
| 20260831171211 | 75 | 254 | 7.0 | 15.0 | 0.00 | 0.06 | 0.06 | 53 | 1018.4 |
| 20260831170212 | 75 | 273 | 6.0 | 11.0 | 0.00 | 0.06 | 0.06 | 53 | 1018.3 |
| 20260831165211 | 76 | 286 | 4.0 | 8.0 | 0.00 | 0.06 | 0.06 | 53 | 1018.5 |
| 20260831164211 | 76 | 296 | 7.0 | 12.0 | 0.00 | 0.06 | 0.06 | 52 | 1018.5 |
| 20260831163211 | 76 | 255 | 6.0 | 13.0 | 0.00 | 0.06 | 0.06 | 51 | 1018.6 |
| 20260831162211 | 76 | 266 | 6.0 | 16.0 | 0.00 | 0.06 | 0.06 | 51 | 1018.6 |
| 20260831161211 | 77 | 244 | 3.0 | 10.0 | 0.00 | 0.06 | 0.06 | 52 | 1018.5 |
| 20260831160211 | 76 | 251 | 10.0 | 17.0 | 0.00 | 0.06 | 0.06 | 50 | 1018.4 |
| 20260831155211 | 76 | 251 | 12.0 | 20.0 | 0.00 | 0.06 | 0.06 | 50 | 1018.4 |
| 20260831154211 | 77 | 280 | 6.0 | 21.0 | 0.00 | 0.06 | 0.06 | 50 | 1018.3 |
| 20260831153211 | 77 | 273 | 10.0 | 22.0 | 0.00 | 0.06 | 0.06 | 49 | 1018.2 |
| 20260831152211 | 77 | 44 | 8.0 | 16.0 | 0.00 | 0.06 | 0.06 | 48 | 1018.0 |
| 20260831151211 | 77 | 265 | 8.0 | 20.0 | 0.00 | 0.06 | 0.06 | 48 | 1018.0 |
| 20260831150211 | 77 | 293 | 8.0 | 17.0 | 0.00 | 0.06 | 0.06 | 48 | 1017.8 |
| 20260831145210 | 77 | 250 | 12.0 | 25.0 | 0.00 | 0.06 | 0.06 | 49 | 1017.7 |
| 20260831144211 | 78 | 283 | 11.0 | 21.0 | 0.00 | 0.06 | 0.06 | 50 | 1017.8 |
| 20260831143211 | 78 | 244 | 8.0 | 19.0 | 0.00 | 0.06 | 0.06 | 50 | 1017.9 |
| 20260831142211 | 78 | 249 | 11.0 | 20.0 | 0.00 | 0.06 | 0.06 | 49 | 1017.6 |
| 20260831141210 | 78 | 295 | 11.0 | 24.0 | 0.00 | 0.06 | 0.06 | 51 | 1017.7 |
| 20260831140211 | 78 | 269 | 8.0 | 17.0 | 0.00 | 0.06 | 0.06 | 51 | 1017.5 |
| 20260831135211 | 78 | 262 | 9.0 | 24.0 | 0.00 | 0.06 | 0.06 | 50 | 1017.6 |
| 20260831134211 | 79 | 259 | 11.0 | 20.0 | 0.00 | 0.06 | 0.06 | 49 | 1017.7 |
| 20260831133211 | 79 | 287 | 14.0 | 26.0 | 0.00 | 0.06 | 0.06 | 48 | 1017.8 |
| 20260831132210 | 80 | 288 | 11.0 | 20.0 | 0.00 | 0.06 | 0.06 | 48 | 1017.8 |
| 20260831131211 | 80 | 278 | 13.0 | 20.0 | 0.00 | 0.06 | 0.06 | 50 | 1017.8 |
| 20260831130210 | 81 | 249 | 11.0 | 23.0 | 0.00 | 0.06 | 0.06 | 49 | 1017.7 |
| 20260831125210 | 82 | 360 | 11.0 | 23.0 | 0.00 | 0.06 | 0.06 | 49 | 1017.8 |
| 20260831124211 | 81 | 289 | 14.0 | 22.0 | 0.00 | 0.06 | 0.06 | 48 | 1017.7 |
| 20260831123210 | 81 | 259 | 10.0 | 19.0 | 0.00 | 0.06 | 0.06 | 49 | 1017.6 |
| 20260831122210 | 81 | 271 | 11.0 | 25.0 | 0.00 | 0.06 | 0.06 | 48 | 1017.6 |
| 20260831121210 | 80 | 236 | 11.0 | 21.0 | 0.00 | 0.06 | 0.06 | 50 | 1017.6 |
| 20260831120210 | 80 | 220 | 13.0 | 20.0 | 0.00 | 0.06 | 0.06 | 50 | 1017.7 |
| 20260831115210 | 80 | 225 | 7.0 | 19.0 | 0.00 | 0.06 | 0.06 | 52 | 1017.6 |
| 20260831114211 | 79 | 273 | 9.0 | 19.0 | 0.00 | 0.06 | 0.06 | 52 | 1017.7 |
| 20260831113211 | 79 | 275 | 10.0 | 19.0 | 0.00 | 0.06 | 0.06 | 53 | 1017.7 |
| 20260831112211 | 78 | 282 | 5.0 | 15.0 | 0.00 | 0.06 | 0.06 | 55 | 1018.1 |
| 20260831111210 | 77 | 192 | 9.0 | 20.0 | 0.00 | 0.06 | 0.06 | 55 | 1018.2 |
| 20260831110212 | 76 | 249 | 11.0 | 20.0 | 0.00 | 0.06 | 0.06 | 58 | 1018.2 |
| 20260831110210 | 76 | 249 | 11.0 | 20.0 | 0.00 | 0.06 | 0.06 | 58 | 1018.2 |
| 20260831105210 | 74 | 226 | 12.0 | 21.0 | 0.00 | 0.06 | 0.06 | 59 | 1018.3 |
| 20260831104211 | 74 | 242 | 10.0 | 18.0 | 0.00 | 0.06 | 0.06 | 59 | 1018.3 |
| 20260831103210 | 74 | 271 | 9.0 | 21.0 | 0.00 | 0.06 | 0.06 | 60 | 1018.4 |
| 20260831102210 | 74 | 239 | 9.0 | 15.0 | 0.00 | 0.06 | 0.06 | 61 | 1018.4 |
| 20260831101210 | 74 | 298 | 6.0 | 11.0 | 0.00 | 0.06 | 0.06 | 62 | 1018.4 |
| 20260831100210 | 74 | 244 | 10.0 | 20.0 | 0.00 | 0.06 | 0.06 | 61 | 1018.4 |
| 20260831095210 | 74 | 234 | 6.0 | 16.0 | 0.00 | 0.06 | 0.06 | 63 | 1018.4 |
| 20260831094211 | 74 | 275 | 8.0 | 23.0 | 0.00 | 0.06 | 0.06 | 62 | 1018.4 |
| 20260831093210 | 74 | 229 | 7.0 | 17.0 | 0.00 | 0.06 | 0.06 | 63 | 1018.4 |
| 20260831092210 | 73 | 266 | 10.0 | 16.0 | 0.00 | 0.06 | 0.06 | 63 | 1018.6 |
| 20260831091210 | 72 | 297 | 8.0 | 19.0 | 0.00 | 0.06 | 0.06 | 64 | 1018.4 |
| 20260831090210 | 72 | 213 | 10.0 | 22.0 | 0.00 | 0.06 | 0.06 | 66 | 1018.2 |
| 20260831085210 | 71 | 269 | 12.0 | 21.0 | 0.00 | 0.06 | 0.06 | 67 | 1018.3 |
| 20260831084210 | 71 | 255 | 11.0 | 24.0 | 0.00 | 0.06 | 0.06 | 69 | 1018.0 |
| 20260831083210 | 71 | 271 | 11.0 | 21.0 | 0.00 | 0.06 | 0.06 | 71 | 1017.9 |
| 20260831082210 | 70 | 265 | 16.0 | 23.0 | 0.00 | 0.06 | 0.06 | 72 | 1017.9 |
| 20260831081210 | 70 | 240 | 12.0 | 20.0 | 0.00 | 0.06 | 0.06 | 74 | 1017.7 |
| 20260831080210 | 69 | 240 | 9.0 | 18.0 | 0.00 | 0.06 | 0.06 | 76 | 1017.7 |
| 20260831075210 | 69 | 243 | 7.0 | 16.0 | 0.00 | 0.06 | 0.06 | 77 | 1017.7 |
| 20260831074210 | 68 | 281 | 5.0 | 15.0 | 0.00 | 0.06 | 0.06 | 79 | 1017.7 |
| 20260831073210 | 68 | 242 | 7.0 | 13.0 | 0.00 | 0.06 | 0.06 | 82 | 1017.7 |
| 20260831072210 | 67 | 255 | 6.0 | 13.0 | 0.00 | 0.06 | 0.06 | 84 | 1017.7 |
| 20260831071210 | 67 | 215 | 6.0 | 13.0 | 0.00 | 0.06 | 0.06 | 86 | 1017.7 |
| 20260831070211 | 66 | 216 | 7.0 | 14.0 | 0.00 | 0.06 | 0.06 | 88 | 1017.7 |
| 20260831065210 | 65 | 248 | 5.0 | 12.0 | 0.00 | 0.06 | 0.06 | 89 | 1017.7 |
| 20260831064210 | 65 | 213 | 5.0 | 12.0 | 0.00 | 0.06 | 0.06 | 90 | 1017.8 |
| 20260831063210 | 64 | 267 | 8.0 | 14.0 | 0.00 | 0.06 | 0.06 | 91 | 1017.6 |
| 20260831062210 | 64 | 255 | 9.0 | 16.0 | 0.00 | 0.06 | 0.06 | 91 | 1017.5 |
| 20260831061210 | 64 | 294 | 7.0 | 13.0 | 0.00 | 0.06 | 0.06 | 92 | 1017.4 |
| 20260831060210 | 63 | 281 | 6.0 | 12.0 | 0.00 | 0.06 | 0.06 | 92 | 1017.2 |
| 20260831055210 | 63 | 232 | 8.0 | 14.0 | 0.00 | 0.06 | 0.06 | 92 | 1017.3 |
| 20260831054210 | 63 | 217 | 7.0 | 18.0 | 0.00 | 0.06 | 0.06 | 92 | 1017.2 |
| 20260831053210 | 62 | 204 | 8.0 | 14.0 | 0.00 | 0.06 | 0.06 | 92 | 1017.1 |
| 20260831052210 | 62 | 273 | 7.0 | 19.0 | 0.00 | 0.06 | 0.06 | 92 | 1016.9 |
| 20260831051210 | 62 | 239 | 9.0 | 19.0 | 0.00 | 0.06 | 0.06 | 93 | 1017.0 |
| 20260831050210 | 63 | 274 | 8.0 | 18.0 | 0.00 | 0.06 | 0.06 | 93 | 1016.9 |
| 20260831045210 | 63 | 231 | 12.0 | 19.0 | 0.00 | 0.06 | 0.06 | 93 | 1016.9 |
| 20260831044210 | 63 | 214 | 7.0 | 15.0 | 0.00 | 0.06 | 0.06 | 93 | 1016.8 |
| 20260831043210 | 63 | 240 | 7.0 | 14.0 | 0.00 | 0.06 | 0.06 | 93 | 1016.8 |
| 20260831042210 | 63 | 244 | 7.0 | 12.0 | 0.00 | 0.06 | 0.06 | 93 | 1016.7 |
| 20260831041210 | 63 | 219 | 7.0 | 12.0 | 0.00 | 0.06 | 0.06 | 93 | 1016.6 |
| 20260831040210 | 63 | 211 | 6.0 | 12.0 | 0.00 | 0.06 | 0.06 | 93 | 1016.7 |
| 20260831035210 | 63 | 231 | 4.0 | 8.0 | 0.00 | 0.06 | 0.06 | 93 | 1016.6 |
| 20260831034210 | 63 | 170 | 5.0 | 11.0 | 0.00 | 0.06 | 0.06 | 93 | 1016.5 |
| 20260831033210 | 63 | 221 | 3.0 | 9.0 | 0.00 | 0.06 | 0.06 | 93 | 1016.5 |
| 20260831032210 | 63 | 192 | 4.0 | 9.0 | 0.00 | 0.06 | 0.06 | 93 | 1016.5 |
| 20260831031210 | 63 | 194 | 2.0 | 8.0 | 0.00 | 0.06 | 0.06 | 93 | 1016.4 |
| 20260831030210 | 64 | 180 | 3.0 | 4.0 | 0.00 | 0.06 | 0.06 | 93 | 1016.3 |
| 20260831025210 | 64 | 234 | 3.0 | 7.0 | 0.00 | 0.06 | 0.06 | 93 | 1016.3 |
| 20260831024211 | 64 | 244 | 3.0 | 7.0 | 0.00 | 0.06 | 0.06 | 93 | 1016.3 |
| 20260831023210 | 64 | 268 | 5.0 | 8.0 | 0.00 | 0.06 | 0.06 | 93 | 1016.3 |
| 20260831022210 | 64 | 229 | 4.0 | 11.0 | 0.00 | 0.06 | 0.06 | 93 | 1016.2 |
| 20260831021210 | 64 | 229 | 4.0 | 8.0 | 0.00 | 0.06 | 0.06 | 93 | 1016.1 |
| 20260831020210 | 64 | 245 | 4.0 | 9.0 | 0.00 | 0.06 | 0.06 | 93 | 1015.9 |
| 20260831015210 | 64 | 238 | 5.0 | 8.0 | 0.00 | 0.06 | 0.06 | 93 | 1015.9 |
| 20260831014210 | 64 | 219 | 7.0 | 11.0 | 0.00 | 0.06 | 0.06 | 92 | 1015.6 |
| 20260831013210 | 64 | 198 | 7.0 | 14.0 | 0.00 | 0.06 | 0.06 | 92 | 1015.7 |
| 20260831012210 | 64 | 263 | 10.0 | 17.0 | 0.00 | 0.06 | 0.06 | 92 | 1015.6 |
| 20260831011210 | 64 | 217 | 7.0 | 18.0 | 0.00 | 0.06 | 0.06 | 92 | 1015.4 |
| 20260831010209 | 64 | 229 | 7.0 | 15.0 | 0.00 | 0.06 | 0.06 | 92 | 1015.5 |
| 20260831005210 | 64 | 191 | 8.0 | 13.0 | 0.00 | 0.06 | 0.06 | 92 | 1015.4 |
| 20260831004210 | 64 | 234 | 8.0 | 16.0 | 0.00 | 0.06 | 0.06 | 91 | 1015.4 |
| 20260831003210 | 65 | 191 | 6.0 | 15.0 | 0.00 | 0.06 | 0.06 | 91 | 1015.3 |
| 20260831002209 | 65 | 225 | 5.0 | 13.0 | 0.02 | 0.06 | 0.06 | 91 | 1015.2 |
| 20260831001209 | 65 | 184 | 8.0 | 13.0 | 0.03 | 0.06 | 0.06 | 90 | 1015.3 |
| 20260831000211 | 65 | 182 | 6.0 | 9.0 | 0.04 | 0.06 | 0.06 | 90 | 1015.2 |
| 20260830235210 | 65 | 150 | 5.0 | 11.0 | 0.05 | 0.06 | 0.06 | 90 | 1014.9 |
| 20260830234209 | 66 | 172 | 5.0 | 9.0 | 0.05 | 0.06 | 0.06 | 89 | 1014.9 |
| 20260830233210 | 66 | 247 | 5.0 | 8.0 | 0.05 | 0.06 | 0.06 | 88 | 1014.7 |
| 20260830232210 | 67 | 235 | 7.0 | 11.0 | 0.04 | 0.05 | 0.05 | 88 | 1015.0 |
| 20260830231209 | 67 | 211 | 6.0 | 14.0 | 0.02 | 0.03 | 0.03 | 87 | 1015.1 |
| 20260830230210 | 67 | 267 | 6.0 | 12.0 | 0.02 | 0.02 | 0.02 | 87 | 1015.7 |
| 20260830225209 | 67 | 285 | 7.0 | 12.0 | 0.02 | 0.02 | 0.02 | 85 | 1015.6 |
| 20260830224209 | 68 | 223 | 4.0 | 6.0 | 0.01 | 0.02 | 0.01 | 84 | 1014.3 |
| 20260830223209 | 69 | 163 | 2.0 | 4.0 | 0.01 | 0.02 | 0.01 | 82 | 1013.6 |
| 20260830222209 | 69 | 236 | 0.0 | 3.0 | 0.01 | 0.02 | 0.01 | 82 | 1013.8 |
| 20260830221211 | 69 | 279 | 2.0 | 13.0 | 0.01 | 0.01 | 0.01 | 80 | 1014.3 |
| 20260830220210 | 69 | 293 | 9.0 | 17.0 | 0.00 | 0.00 | 0.00 | 78 | 1015.0 |
| 20260830215211 | 69 | 261 | 6.0 | 11.0 | 0.00 | 0.00 | 0.00 | 76 | 1014.0 |
| 20260830214210 | 69 | 235 | 2.0 | 4.0 | 0.00 | 0.00 | 0.00 | 75 | 1013.5 |
| 20260830213210 | 69 | 250 | 2.0 | 3.0 | 0.00 | 0.00 | 0.00 | 75 | 1013.0 |
| 20260830212210 | 69 | 220 | 0.0 | 3.0 | 0.00 | 0.00 | 0.00 | 75 | 1013.0 |
| 20260830211210 | 69 | 251 | 1.0 | 3.0 | 0.00 | 0.00 | 0.00 | 75 | 1013.0 |
| 20260830210210 | 69 | 244 | 0.0 | 0.0 | 0.00 | 0.00 | 0.00 | 74 | 1013.2 |
| 20260830205212 | 70 | 244 | 0.0 | 0.0 | 0.00 | 0.00 | 0.00 | 73 | 1013.2 |
| 20260830204210 | 70 | 244 | 0.0 | 0.0 | 0.00 | 0.00 | 0.00 | 73 | 1013.3 |
| 20260830203210 | 71 | 244 | 0.0 | 0.0 | 0.00 | 0.00 | 0.00 | 72 | 1013.4 |
| 20260830202210 | 71 | 181 | 0.0 | 0.0 | 0.00 | 0.00 | 0.00 | 71 | 1013.4 |
| 20260830201210 | 71 | 181 | 0.0 | 0.0 | 0.00 | 0.00 | 0.00 | 71 | 1013.3 |
| 20260830200210 | 72 | 183 | 0.0 | 2.0 | 0.00 | 0.00 | 0.00 | 70 | 1013.4 |
| 20260830195210 | 72 | 181 | 1.0 | 4.0 | 0.00 | 0.00 | 0.00 | 69 | 1013.4 |